createdAt,value
2022-10-22T00:02:26.198Z,99261.78
2022-10-22T00:04:57.198Z,99276.88
2022-10-22T00:07:25.724Z,99265.84
2022-10-22T00:09:53.719Z,99239.69
2022-10-22T00:12:21.974Z,99230.22
2022-10-22T00:14:51.196Z,99218.06
2022-10-22T00:17:19.436Z,99279.81
2022-10-22T00:19:47.214Z,99216.84
2022-10-22T00:22:16.372Z,99231.06
2022-10-22T00:24:44.194Z,99265.13
2022-10-22T00:27:13.807Z,99248.38
2022-10-22T00:29:42.767Z,99241.44
2022-10-22T00:32:10.688Z,99203.44
2022-10-22T00:34:38.559Z,99216.31
2022-10-22T00:37:06.985Z,99237.66
2022-10-22T00:39:35.279Z,99230.78
2022-10-22T00:42:03.175Z,99186.16
2022-10-22T00:45:23.653Z,99226.06
2022-10-22T00:48:20.064Z,99219.78
2022-10-22T00:51:01.427Z,99225.34
2022-10-22T00:53:39.666Z,99179.88
2022-10-22T00:56:09.325Z,99219.06
2022-10-22T00:58:43.979Z,99165.78
2022-10-22T01:01:20.302Z,99165.63
2022-10-22T01:03:49.051Z,99225.50
2022-10-22T01:06:29.207Z,99219.38
2022-10-22T01:09:34.835Z,99229.97
2022-10-22T01:12:36.629Z,99236.94
2022-10-22T01:15:29.154Z,99230.81
2022-10-22T01:18:15.725Z,99221.88
2022-10-22T01:21:10.283Z,99138.47
2022-10-22T01:24:15.686Z,99226.22
2022-10-22T01:27:11.007Z,99219.94
2022-10-22T01:30:03.384Z,99224.00
2022-10-22T01:32:59.273Z,99199.28
2022-10-22T01:35:39.189Z,99229.97
2022-10-22T01:38:12.686Z,99173.31
2022-10-22T01:40:41.883Z,99179.88
2022-10-22T01:43:11.620Z,99230.81
2022-10-22T01:45:56.539Z,99221.91
2022-10-22T01:48:33.700Z,99216.84
2022-10-22T01:51:35.122Z,99216.75
2022-10-22T01:54:44.483Z,99220.47
2022-10-22T01:57:51.439Z,99217.16
2022-10-22T02:00:20.165Z,99215.31
2022-10-22T02:03:07.509Z,99220.47
2022-10-22T02:05:56.193Z,99178.09
2022-10-22T02:08:33.166Z,99213.38
2022-10-22T02:11:02.872Z,99214.78
2022-10-22T02:13:39.743Z,99188.13
2022-10-22T02:16:12.723Z,99187.56
2022-10-22T02:18:45.158Z,99190.34
2022-10-22T02:21:13.737Z,99185.75
2022-10-22T02:23:41.767Z,99144.16
2022-10-22T02:26:22.011Z,99188.09
2022-10-22T02:29:05.545Z,99191.47
2022-10-22T02:31:38.714Z,99179.19
2022-10-22T02:34:14.791Z,99140.53
2022-10-22T02:36:46.849Z,99173.03
2022-10-22T02:39:20.193Z,99179.16
2022-10-22T02:41:48.912Z,99173.59
2022-10-22T02:44:21.042Z,99169.84
2022-10-22T02:46:49.573Z,99161.88
2022-10-22T02:49:18.058Z,99144.31
2022-10-22T02:51:46.537Z,99159.94
2022-10-22T02:54:16.410Z,99158.13
2022-10-22T02:56:44.402Z,99113.31
2022-10-22T02:59:12.230Z,99149.31
2022-10-22T03:01:40.289Z,99146.66
2022-10-22T03:04:08.137Z,99139.00
2022-10-22T03:06:36.508Z,99138.00
2022-10-22T03:09:04.925Z,99132.25
2022-10-22T03:11:32.786Z,99134.78
2022-10-22T03:14:00.692Z,99079.72
2022-10-22T03:16:28.888Z,99091.13
2022-10-22T03:18:56.753Z,99149.03
2022-10-22T03:21:42.753Z,99143.31
2022-10-22T03:24:22.497Z,99113.28
2022-10-22T03:26:53.307Z,99134.19
2022-10-22T03:29:26.085Z,99087.34
2022-10-22T03:31:55.119Z,99091.53
2022-10-22T03:34:23.072Z,99137.81
2022-10-22T03:36:53.235Z,99134.44
2022-10-22T03:39:24.047Z,99115.94
2022-10-22T03:41:53.514Z,99140.75
2022-10-22T03:44:22.911Z,99121.53
2022-10-22T03:46:51.326Z,99119.00
2022-10-22T03:49:19.219Z,99098.09
2022-10-22T03:51:47.316Z,99135.88
2022-10-22T03:54:17.389Z,99076.63
2022-10-22T03:56:45.208Z,99128.06
2022-10-22T03:59:13.785Z,99042.75
2022-10-22T04:01:41.811Z,99122.19
2022-10-22T04:04:09.709Z,99118.19
2022-10-22T04:06:37.814Z,99118.19
2022-10-22T04:09:06.326Z,99120.44
2022-10-22T04:11:34.156Z,99117.47
2022-10-22T04:14:02.033Z,99116.50
2022-10-22T04:16:31.821Z,99106.63
2022-10-22T04:18:59.910Z,99111.94
2022-10-22T04:21:27.871Z,99081.56
2022-10-22T04:23:55.823Z,99134.41
2022-10-22T04:26:24.046Z,99086.75
2022-10-22T04:28:53.352Z,99136.50
2022-10-22T04:31:24.549Z,99106.69
2022-10-22T04:33:59.275Z,99120.06
2022-10-22T04:36:29.116Z,99114.34
2022-10-22T04:39:01.261Z,99112.25
2022-10-22T04:41:36.832Z,99101.91
2022-10-22T04:44:06.142Z,99112.53
2022-10-22T04:46:35.735Z,99101.78
2022-10-22T04:49:04.865Z,99091.91
2022-10-22T04:51:33.250Z,99090.50
2022-10-22T04:54:01.205Z,99082.97
2022-10-22T04:56:31.966Z,99091.91
2022-10-22T04:59:07.468Z,99077.41
2022-10-22T05:01:42.635Z,99051.22
2022-10-22T05:04:19.819Z,99073.91
2022-10-22T05:06:49.159Z,99071.53
2022-10-22T05:09:21.041Z,99097.63
2022-10-22T05:11:51.876Z,99088.25
2022-10-22T05:14:24.316Z,99028.28
2022-10-22T05:16:53.658Z,99132.28
2022-10-22T05:19:26.958Z,99131.63
2022-10-22T05:21:58.085Z,99082.97
2022-10-22T05:24:27.910Z,99086.88
2022-10-22T05:26:59.330Z,99127.34
2022-10-22T05:29:28.118Z,99123.81
2022-10-22T05:31:56.168Z,99128.97
2022-10-22T05:34:24.222Z,99096.34
2022-10-22T05:36:52.102Z,99125.50
2022-10-22T05:39:19.961Z,99132.19
2022-10-22T05:41:50.719Z,99132.31
2022-10-22T05:44:18.775Z,99123.69
2022-10-22T05:46:46.566Z,99132.44
2022-10-22T05:49:17.964Z,99130.91
2022-10-22T05:51:47.035Z,99135.47
2022-10-22T05:54:20.934Z,99121.81
2022-10-22T05:56:49.348Z,99125.00
2022-10-22T05:59:17.373Z,99107.41
2022-10-22T06:01:45.454Z,99120.09
2022-10-22T06:04:15.024Z,99131.50
2022-10-22T06:06:51.669Z,99130.78
2022-10-22T06:09:24.854Z,99135.78
2022-10-22T06:11:53.910Z,99094.34
2022-10-22T06:14:22.780Z,99138.19
2022-10-22T06:16:51.892Z,99147.00
2022-10-22T06:19:23.824Z,99143.00
2022-10-22T06:21:51.912Z,99144.88
2022-10-22T06:24:19.722Z,99141.53
2022-10-22T06:26:54.771Z,99132.28
2022-10-22T06:29:23.863Z,99071.41
2022-10-22T06:31:52.177Z,99141.84
2022-10-22T06:34:20.617Z,99109.16
2022-10-22T06:36:51.722Z,99143.75
2022-10-22T06:39:19.865Z,99147.63
2022-10-22T06:41:47.959Z,99111.44
2022-10-22T06:44:20.144Z,99156.22
2022-10-22T06:46:52.676Z,99109.75
2022-10-22T06:49:21.826Z,99152.03
2022-10-22T06:51:54.003Z,99132.53
2022-10-22T06:54:22.435Z,99157.09
2022-10-22T06:56:50.553Z,99142.13
2022-10-22T06:59:18.883Z,99165.69
2022-10-22T07:01:47.026Z,99067.59
2022-10-22T07:04:15.841Z,99140.69
2022-10-22T07:06:43.944Z,99142.84
2022-10-22T07:09:12.405Z,99147.81
2022-10-22T07:11:44.943Z,99143.66
2022-10-22T07:14:14.990Z,99138.00
2022-10-22T07:16:43.371Z,99139.69
2022-10-22T07:19:11.878Z,99107.66
2022-10-22T07:21:40.165Z,99119.34
2022-10-22T07:24:08.806Z,99143.69
2022-10-22T07:26:37.452Z,99144.69
2022-10-22T07:29:05.854Z,99150.00
2022-10-22T07:31:34.374Z,99143.03
2022-10-22T07:34:02.808Z,99105.28
2022-10-22T07:36:30.642Z,99147.38
2022-10-22T07:39:01.722Z,99110.44
2022-10-22T07:41:31.196Z,99101.16
2022-10-22T07:43:59.819Z,99092.81
2022-10-22T07:46:28.539Z,99092.16
2022-10-22T07:48:56.639Z,99111.63
2022-10-22T07:51:24.737Z,99116.97
2022-10-22T07:53:52.687Z,99115.63
2022-10-22T07:56:21.058Z,99112.31
2022-10-22T07:58:49.129Z,99122.63
2022-10-22T08:01:17.310Z,99102.81
2022-10-22T08:03:45.469Z,99100.63
2022-10-22T08:06:15.115Z,99108.28
2022-10-22T08:08:43.832Z,99058.47
2022-10-22T08:11:12.834Z,99097.47
2022-10-22T08:13:45.053Z,99096.97
2022-10-22T08:16:14.715Z,99101.94
2022-10-22T08:18:42.846Z,99091.09
2022-10-22T08:21:12.768Z,99114.19
2022-10-22T08:23:41.401Z,99121.13
2022-10-22T08:26:10.562Z,99079.00
2022-10-22T08:28:38.663Z,99111.00
2022-10-22T08:31:08.694Z,99099.03
2022-10-22T08:33:38.981Z,99119.91
2022-10-22T08:36:08.058Z,99127.91
2022-10-22T08:38:36.316Z,99121.75
2022-10-22T08:41:20.618Z,99134.72
2022-10-22T08:44:23.789Z,99118.81
2022-10-22T08:47:21.636Z,99138.97
2022-10-22T08:49:52.137Z,99090.19
2022-10-22T08:52:21.093Z,99140.88
2022-10-22T08:55:02.144Z,99116.59
2022-10-22T08:58:03.667Z,99140.25
2022-10-22T09:00:58.889Z,99133.75
2022-10-22T09:03:37.251Z,99129.22
2022-10-22T09:06:26.160Z,99130.66
2022-10-22T09:08:57.078Z,99088.19
2022-10-22T09:11:37.864Z,99107.25
2022-10-22T09:14:07.102Z,99146.56
2022-10-22T09:17:10.244Z,99152.22
2022-10-22T09:20:03.572Z,99155.63
2022-10-22T09:23:11.013Z,99147.22
2022-10-22T09:25:39.460Z,99134.13
2022-10-22T09:28:10.178Z,99123.78
2022-10-22T09:30:40.253Z,99111.53
2022-10-22T09:33:08.357Z,99121.69
2022-10-22T09:35:57.009Z,99119.19
2022-10-22T09:38:30.033Z,99111.53
2022-10-22T09:41:00.977Z,99133.44
2022-10-22T09:43:29.411Z,99101.91
2022-10-22T09:46:03.944Z,99136.09
2022-10-22T09:48:39.511Z,99105.59
2022-10-22T09:51:25.576Z,99097.75
2022-10-22T09:54:01.056Z,99100.59
2022-10-22T09:56:36.603Z,99089.56
2022-10-22T09:59:04.961Z,99128.28
2022-10-22T10:01:36.543Z,99108.31
2022-10-22T10:04:16.223Z,99120.84
2022-10-22T10:06:45.248Z,99116.00
2022-10-22T10:09:23.648Z,99119.28
2022-10-22T10:12:21.338Z,99115.50
2022-10-22T10:15:01.339Z,99117.22
2022-10-22T10:18:16.157Z,99113.84
2022-10-22T10:21:08.719Z,99116.38
2022-10-22T10:24:09.709Z,99082.94
2022-10-22T10:27:01.251Z,99112.28
2022-10-22T10:30:06.700Z,99084.66
2022-10-22T10:33:16.087Z,99125.41
2022-10-22T10:36:06.884Z,99142.69
2022-10-22T10:39:16.287Z,99130.22
2022-10-22T10:42:02.650Z,99115.16
2022-10-22T10:45:01.316Z,99119.47
2022-10-22T10:48:10.682Z,99108.75
2022-10-22T10:50:56.332Z,99119.94
2022-10-22T10:53:42.793Z,99116.75
2022-10-22T10:56:41.642Z,99119.88
2022-10-22T10:59:50.468Z,99123.28
2022-10-22T11:02:40.459Z,99114.16
2022-10-22T11:05:31.938Z,99062.50
2022-10-22T11:08:28.176Z,99101.03
2022-10-22T11:11:23.237Z,99097.03
2022-10-22T11:14:17.284Z,99099.25
2022-10-22T11:17:17.166Z,99063.69
2022-10-22T11:20:30.477Z,99048.66
2022-10-22T11:23:20.118Z,99089.09
2022-10-22T11:25:51.141Z,99084.94
2022-10-22T11:28:45.660Z,99062.50
2022-10-22T11:31:18.455Z,99084.13
2022-10-22T11:34:09.788Z,99055.38
2022-10-22T11:36:45.288Z,99081.75
2022-10-22T11:39:34.259Z,99081.44
2022-10-22T11:42:23.527Z,99010.22
2022-10-22T11:45:28.835Z,99085.16
2022-10-22T11:48:11.959Z,99092.50
2022-10-22T11:51:01.248Z,99089.09
2022-10-22T11:53:34.442Z,99073.13
2022-10-22T11:56:10.014Z,99083.97
2022-10-22T11:58:39.641Z,98949.41
2022-10-22T12:01:10.624Z,99089.72
2022-10-22T12:03:44.451Z,99077.16
2022-10-22T12:06:16.015Z,99081.50
2022-10-22T12:08:50.344Z,99076.50
2022-10-22T12:11:50.457Z,99070.69
2022-10-22T12:14:48.406Z,99073.19
2022-10-22T12:17:18.173Z,99070.97
2022-10-22T12:20:11.774Z,99031.63
2022-10-22T12:22:40.501Z,99039.84
2022-10-22T12:25:24.808Z,99063.94
2022-10-22T12:27:58.229Z,99013.44
2022-10-22T12:30:31.946Z,99053.91
2022-10-22T12:33:03.863Z,99053.91
2022-10-22T12:35:43.848Z,99054.09
2022-10-22T12:38:22.743Z,99050.03
2022-10-22T12:40:54.848Z,99057.03
2022-10-22T12:43:31.382Z,99070.78
2022-10-22T12:46:00.185Z,99059.84
2022-10-22T12:48:34.745Z,99068.91
2022-10-22T12:51:08.357Z,99032.69
2022-10-22T12:53:52.390Z,99064.25
2022-10-22T12:56:26.900Z,99067.13
2022-10-22T12:59:03.760Z,99062.31
2022-10-22T13:01:42.396Z,99065.00
2022-10-22T13:04:15.333Z,99075.25
2022-10-22T13:07:07.494Z,99046.69
2022-10-22T13:09:59.708Z,99041.88
2022-10-22T13:12:35.525Z,99042.09
2022-10-22T13:15:28.118Z,99068.28
2022-10-22T13:18:24.143Z,99069.44
2022-10-22T13:21:07.816Z,99071.47
2022-10-22T13:23:35.911Z,99052.81
2022-10-22T13:26:15.237Z,99074.41
2022-10-22T13:28:50.856Z,99057.09
2022-10-22T13:31:26.712Z,99058.81
2022-10-22T13:34:01.408Z,99054.25
2022-10-22T13:36:32.461Z,99030.69
2022-10-22T13:39:00.620Z,99059.00
2022-10-22T13:41:32.504Z,99057.91
2022-10-22T13:44:00.819Z,99061.97
2022-10-22T13:46:29.577Z,99019.56
2022-10-22T13:49:00.155Z,99018.09
2022-10-22T13:51:37.693Z,99026.44
2022-10-22T13:54:30.468Z,99051.63
2022-10-22T13:56:58.625Z,99053.00
2022-10-22T13:59:26.472Z,99055.00
2022-10-22T14:01:56.147Z,99062.00
2022-10-22T14:04:24.323Z,99024.69
2022-10-22T14:06:52.779Z,99053.72
2022-10-22T14:09:21.437Z,99071.91
2022-10-22T14:11:49.624Z,99067.22
2022-10-22T14:14:21.045Z,99077.09
2022-10-22T14:16:49.641Z,99073.94
2022-10-22T14:19:18.515Z,99078.78
2022-10-22T14:21:47.313Z,99077.44
2022-10-22T14:24:15.938Z,99085.31
2022-10-22T14:26:44.380Z,99083.47
2022-10-22T14:29:12.287Z,99089.81
2022-10-22T14:31:43.084Z,99076.50
2022-10-22T14:34:15.829Z,99092.84
2022-10-22T14:36:44.389Z,99091.50
2022-10-22T14:39:13.934Z,99070.34
2022-10-22T14:41:42.707Z,99066.84
2022-10-22T14:44:17.304Z,99043.13
2022-10-22T14:46:46.962Z,99081.47
2022-10-22T14:49:18.097Z,99077.78
2022-10-22T14:51:47.641Z,99076.63
2022-10-22T14:54:16.607Z,98961.44
2022-10-22T14:56:44.987Z,99070.47
2022-10-22T14:59:15.898Z,99074.78
2022-10-22T15:01:45.041Z,99073.25
2022-10-22T15:04:15.743Z,99079.44
2022-10-22T15:06:43.710Z,99095.59
2022-10-22T15:09:11.751Z,99033.75
2022-10-22T15:11:40.063Z,99085.91
2022-10-22T15:14:08.392Z,99095.44
2022-10-22T15:16:36.368Z,99087.09
2022-10-22T15:19:04.541Z,99091.59
2022-10-22T15:21:33.711Z,99084.91
2022-10-22T15:24:01.776Z,99091.88
2022-10-22T15:26:29.914Z,99098.91
2022-10-22T15:28:57.892Z,99096.06
2022-10-22T15:31:46.315Z,99058.19
2022-10-22T15:34:20.280Z,99059.38
2022-10-22T15:36:48.553Z,99098.88
2022-10-22T15:39:16.905Z,99105.72
2022-10-22T15:41:49.448Z,99100.72
2022-10-22T15:44:22.216Z,99112.03
2022-10-22T15:46:51.614Z,99109.03
2022-10-22T15:49:19.981Z,99046.75
2022-10-22T15:51:48.592Z,99113.69
2022-10-22T15:54:24.304Z,99127.34
2022-10-22T15:56:52.889Z,99122.03
2022-10-22T15:59:21.556Z,99125.53
2022-10-22T16:01:49.961Z,99115.69
2022-10-22T16:04:18.684Z,99128.84
2022-10-22T16:06:53.073Z,99131.66
2022-10-22T16:09:24.669Z,99084.94
2022-10-22T16:11:54.491Z,99141.47
2022-10-22T16:14:24.420Z,99127.97
2022-10-22T16:16:56.067Z,99141.47
2022-10-22T16:19:25.449Z,99127.59
2022-10-22T16:21:56.846Z,99145.94
2022-10-22T16:24:25.071Z,99138.09
2022-10-22T16:26:53.526Z,99151.94
2022-10-22T16:29:21.739Z,99142.75
2022-10-22T16:31:49.779Z,99151.75
2022-10-22T16:34:18.453Z,99157.94
2022-10-22T16:36:46.951Z,99152.22
2022-10-22T16:39:15.452Z,99154.06
2022-10-22T16:41:43.701Z,99153.06
2022-10-22T16:44:13.966Z,99038.38
2022-10-22T16:46:42.506Z,99158.56
2022-10-22T16:49:10.776Z,99156.56
2022-10-22T16:51:39.740Z,99158.22
2022-10-22T16:54:11.302Z,99120.81
2022-10-22T16:56:41.833Z,99173.91
2022-10-22T16:59:09.964Z,99159.59
2022-10-22T17:01:40.968Z,99151.94
2022-10-22T17:04:10.987Z,99157.25
2022-10-22T17:06:39.586Z,99118.16
2022-10-22T17:09:07.832Z,99115.56
2022-10-22T17:11:38.068Z,99118.75
2022-10-22T17:14:08.210Z,99164.66
2022-10-22T17:16:37.062Z,99077.69
2022-10-22T17:19:06.789Z,99168.81
2022-10-22T17:21:34.824Z,99162.63
2022-10-22T17:24:02.877Z,99160.13
2022-10-22T17:26:34.012Z,99173.44
2022-10-22T17:29:01.944Z,99169.81
2022-10-22T17:31:40.361Z,99151.44
2022-10-22T17:34:15.266Z,99159.66
2022-10-22T17:36:45.062Z,99154.16
2022-10-22T17:39:18.432Z,99141.81
2022-10-22T17:41:46.947Z,99154.00
2022-10-22T17:44:16.258Z,99149.97
2022-10-22T17:46:45.372Z,99117.28
2022-10-22T17:49:19.288Z,99135.16
2022-10-22T17:51:47.578Z,99155.38
2022-10-22T17:54:15.903Z,99156.00
2022-10-22T17:56:44.125Z,99118.94
2022-10-22T17:59:16.256Z,99105.63
2022-10-22T18:01:47.299Z,99162.97
2022-10-22T18:04:19.190Z,99124.97
2022-10-22T18:06:48.550Z,99163.38
2022-10-22T18:09:19.433Z,99158.03
2022-10-22T18:11:51.083Z,99164.22
2022-10-22T18:14:21.921Z,99157.19
2022-10-22T18:16:51.098Z,99160.19
2022-10-22T18:19:24.691Z,99165.03
2022-10-22T18:21:53.171Z,99153.69
2022-10-22T18:24:21.300Z,99123.00
2022-10-22T18:26:49.661Z,99164.34
2022-10-22T18:29:21.071Z,99161.84
2022-10-22T18:31:49.640Z,99155.38
2022-10-22T18:34:20.379Z,99156.69
2022-10-22T18:36:51.215Z,99159.19
2022-10-22T18:39:19.916Z,99125.31
2022-10-22T18:41:47.856Z,99171.03
2022-10-22T18:44:16.587Z,99118.28
2022-10-22T18:46:44.669Z,99160.38
2022-10-22T18:49:18.727Z,99117.97
2022-10-22T18:51:53.154Z,99170.31
2022-10-22T18:54:24.650Z,99130.13
2022-10-22T18:57:02.591Z,99115.41
2022-10-22T18:59:31.742Z,99150.66
2022-10-22T19:02:00.288Z,99112.75
2022-10-22T19:04:36.850Z,99144.44
2022-10-22T19:07:07.224Z,99158.94
2022-10-22T19:09:35.617Z,99132.25
2022-10-22T19:12:03.765Z,99170.78
2022-10-22T19:14:32.627Z,99171.63
2022-10-22T19:17:00.595Z,99137.75
2022-10-22T19:19:28.695Z,99135.84
2022-10-22T19:21:57.254Z,99177.63
2022-10-22T19:24:25.923Z,99053.09
2022-10-22T19:26:57.521Z,99178.09
2022-10-22T19:29:25.653Z,99143.53
2022-10-22T19:31:54.220Z,99193.28
2022-10-22T19:34:22.502Z,99153.56
2022-10-22T19:36:52.102Z,99180.25
2022-10-22T19:39:21.238Z,99187.78
2022-10-22T19:41:49.439Z,99190.28
2022-10-22T19:44:20.237Z,99154.53
2022-10-22T19:46:48.295Z,99195.44
2022-10-22T19:49:22.089Z,99203.28
2022-10-22T19:51:51.190Z,99206.28
2022-10-22T19:54:19.891Z,99165.50
2022-10-22T19:56:48.895Z,99214.84
2022-10-22T19:59:20.881Z,99170.16
2022-10-22T20:01:49.111Z,99205.56
2022-10-22T20:04:18.733Z,99214.38
2022-10-22T20:06:47.494Z,99225.94
2022-10-22T20:09:15.791Z,99218.66
2022-10-22T20:11:44.467Z,99224.53
2022-10-22T20:14:14.996Z,99226.91
2022-10-22T20:16:44.067Z,99223.47
2022-10-22T20:19:16.421Z,99216.44
2022-10-22T20:21:49.239Z,99228.94
2022-10-22T20:24:17.420Z,99191.56
2022-10-22T20:26:48.494Z,99222.28
2022-10-22T20:29:19.339Z,99225.28
2022-10-22T20:31:48.526Z,99229.59
2022-10-22T20:34:17.545Z,99192.41
2022-10-22T20:36:46.040Z,99221.31
2022-10-22T20:39:16.816Z,99225.78
2022-10-22T20:41:45.380Z,99220.47
2022-10-22T20:44:17.373Z,99235.09
2022-10-22T20:46:45.695Z,99232.66
2022-10-22T20:49:18.220Z,99238.59
2022-10-22T20:51:46.427Z,99231.63
2022-10-22T20:54:23.450Z,99223.91
2022-10-22T20:56:51.638Z,99236.78
2022-10-22T21:00:03.414Z,99233.78
2022-10-22T21:02:31.889Z,99228.97
2022-10-22T21:05:01.694Z,99231.63
2022-10-22T21:07:29.746Z,99216.75
2022-10-22T21:09:57.873Z,99236.66
2022-10-22T21:12:41.933Z,99193.97
2022-10-22T21:15:12.641Z,99238.34
2022-10-22T21:17:41.408Z,99237.34
2022-10-22T21:22:38.762Z,99242.22
2022-10-22T21:25:07.693Z,99180.75
2022-10-22T21:27:35.759Z,99202.16
2022-10-22T21:30:06.948Z,99237.88
2022-10-22T21:32:36.307Z,99233.53
2022-10-22T21:35:07.336Z,99195.28
2022-10-22T21:37:36.562Z,99240.53
2022-10-22T21:40:08.945Z,99238.88
2022-10-22T21:42:37.116Z,99232.34
2022-10-22T21:45:10.469Z,99235.69
2022-10-22T21:47:41.970Z,99238.09
2022-10-22T21:50:10.396Z,99221.88
2022-10-22T21:52:38.626Z,99179.63
2022-10-22T21:55:07.194Z,99235.19
2022-10-22T21:57:35.804Z,99200.97
2022-10-22T22:00:07.607Z,99207.13
2022-10-22T22:02:35.402Z,99198.00
2022-10-22T22:05:03.352Z,99268.91
2022-10-22T22:07:31.491Z,99242.91
2022-10-22T22:09:59.493Z,99242.06
2022-10-22T22:12:27.446Z,99238.56
2022-10-22T22:14:55.469Z,99243.94
2022-10-22T22:17:23.365Z,99239.25
2022-10-22T22:19:51.360Z,99252.47
2022-10-22T22:22:19.492Z,99237.59
2022-10-22T22:24:47.558Z,99242.44
2022-10-22T22:27:17.529Z,99239.94
2022-10-22T22:29:46.418Z,99242.59
2022-10-22T22:32:15.893Z,99245.13
2022-10-22T22:34:43.834Z,99251.44
2022-10-22T22:37:12.492Z,99250.13
2022-10-22T22:39:40.400Z,99257.97
2022-10-22T22:42:08.744Z,99256.09
2022-10-22T22:44:38.971Z,99256.94
2022-10-22T22:47:07.083Z,99265.97
2022-10-22T22:49:36.506Z,99218.53
2022-10-22T22:52:05.283Z,99257.47
2022-10-22T22:54:33.148Z,99251.97
2022-10-22T22:57:01.056Z,99249.47
2022-10-22T22:59:29.204Z,99252.47
2022-10-22T23:01:57.259Z,99239.06
2022-10-22T23:04:25.484Z,99262.47
2022-10-22T23:06:53.685Z,99269.19
2022-10-22T23:09:21.697Z,99268.50
2022-10-22T23:11:50.757Z,99271.53
2022-10-22T23:14:20.347Z,99261.19
2022-10-22T23:16:51.584Z,99212.06
2022-10-22T23:19:22.771Z,99273.22
2022-10-22T23:21:55.982Z,99259.88
2022-10-22T23:24:28.644Z,99266.84
2022-10-22T23:26:59.759Z,99269.66
2022-10-22T23:29:33.873Z,99283.88
2022-10-22T23:32:05.336Z,99283.38
2022-10-22T23:34:33.364Z,99275.88
2022-10-22T23:37:01.472Z,99279.53
2022-10-22T23:39:30.161Z,99291.03
2022-10-22T23:41:58.677Z,99228.22
2022-10-22T23:44:26.806Z,99237.78
2022-10-22T23:46:55.502Z,99279.72
2022-10-22T23:49:23.433Z,99284.53
2022-10-22T23:51:51.345Z,99284.03
2022-10-22T23:54:19.551Z,99280.03
2022-10-22T23:56:47.538Z,99276.19
2022-10-22T23:59:16.298Z,99267.81
